sensor_id;sensor_type;location;lat;lon;timestamp;pressure;altitude;pressure_sealevel;temperature;humidity
13033;BME280;6583;42.632;23.298;2023-05-10T00:00:47;71020.09;;;-146.40;100.00
13033;BME280;6583;42.632;23.298;2023-05-10T00:03:14;71028.19;;;-146.40;100.00
13033;BME280;6583;42.632;23.298;2023-05-10T00:05:40;71018.06;;;-146.40;100.00
13033;BME280;6583;42.632;23.298;2023-05-10T00:08:07;71018.06;;;-146.40;100.00
13033;BME280;6583;42.632;23.298;2023-05-10T00:10:34;71028.19;;;-146.40;100.00
13033;BME280;6583;42.632;23.298;2023-05-10T00:13:01;71040.34;;;-146.40;100.00
13033;BME280;6583;42.632;23.298;2023-05-10T00:15:29;71028.19;;;-146.40;100.00
13033;BME280;6583;42.632;23.298;2023-05-10T00:17:56;71042.34;;;-146.40;100.00
13033;BME280;6583;42.632;23.298;2023-05-10T00:20:23;71040.34;;;-146.40;100.00
13033;BME280;6583;42.632;23.298;2023-05-10T00:22:50;71048.44;;;-146.40;100.00
13033;BME280;6583;42.632;23.298;2023-05-10T00:25:16;71052.47;;;-146.40;100.00
13033;BME280;6583;42.632;23.298;2023-05-10T00:27:43;71044.38;;;-146.40;100.00
13033;BME280;6583;42.632;23.298;2023-05-10T00:30:10;71038.31;;;-146.40;100.00
13033;BME280;6583;42.632;23.298;2023-05-10T00:32:38;71030.22;;;-146.40;100.00
13033;BME280;6583;42.632;23.298;2023-05-10T00:35:05;71030.22;;;-146.40;100.00
13033;BME280;6583;42.632;23.298;2023-05-10T00:37:32;71028.19;;;-146.40;100.00
13033;BME280;6583;42.632;23.298;2023-05-10T00:39:58;71026.16;;;-146.40;100.00
13033;BME280;6583;42.632;23.298;2023-05-10T00:42:25;71020.09;;;-146.40;100.00
13033;BME280;6583;42.632;23.298;2023-05-10T00:44:52;71032.25;;;-146.40;100.00
13033;BME280;6583;42.632;23.298;2023-05-10T00:47:18;71036.28;;;-146.40;100.00
13033;BME280;6583;42.632;23.298;2023-05-10T00:49:46;71028.19;;;-146.40;100.00
13033;BME280;6583;42.632;23.298;2023-05-10T00:52:14;71032.25;;;-146.40;100.00
13033;BME280;6583;42.632;23.298;2023-05-10T00:54:41;71036.28;;;-146.40;100.00
13033;BME280;6583;42.632;23.298;2023-05-10T00:57:08;71042.34;;;-146.40;100.00
13033;BME280;6583;42.632;23.298;2023-05-10T00:59:35;71048.44;;;-146.40;100.00
13033;BME280;6583;42.632;23.298;2023-05-10T01:02:02;71036.28;;;-146.40;100.00
13033;BME280;6583;42.632;23.298;2023-05-10T01:04:29;71040.34;;;-146.40;100.00
13033;BME280;6583;42.632;23.298;2023-05-10T01:06:57;71036.28;;;-146.40;100.00
13033;BME280;6583;42.632;23.298;2023-05-10T01:09:24;71040.34;;;-146.40;100.00
13033;BME280;6583;42.632;23.298;2023-05-10T01:11:52;71026.16;;;-146.40;100.00
13033;BME280;6583;42.632;23.298;2023-05-10T01:14:20;71040.34;;;-146.40;100.00
13033;BME280;6583;42.632;23.298;2023-05-10T01:16:49;71042.34;;;-146.40;100.00
13033;BME280;6583;42.632;23.298;2023-05-10T01:19:19;71050.44;;;-146.40;100.00
13033;BME280;6583;42.632;23.298;2023-05-10T01:21:55;71056.53;;;-146.40;100.00
13033;BME280;6583;42.632;23.298;2023-05-10T01:25:02;71054.50;;;-146.40;100.00
13033;BME280;6583;42.632;23.298;2023-05-10T01:28:00;71050.44;;;-146.40;100.00
13033;BME280;6583;42.632;23.298;2023-05-10T01:31:06;71054.50;;;-146.40;100.00
13033;BME280;6583;42.632;23.298;2023-05-10T01:33:39;71056.53;;;-146.40;100.00
13033;BME280;6583;42.632;23.298;2023-05-10T01:36:16;71050.44;;;-146.40;100.00
13033;BME280;6583;42.632;23.298;2023-05-10T01:38:55;71046.41;;;-146.40;100.00
13033;BME280;6583;42.632;23.298;2023-05-10T01:41:28;71048.44;;;-146.40;100.00
13033;BME280;6583;42.632;23.298;2023-05-10T01:44:04;71050.44;;;-146.40;100.00
13033;BME280;6583;42.632;23.298;2023-05-10T01:46:36;71050.44;;;-146.40;100.00
13033;BME280;6583;42.632;23.298;2023-05-10T01:49:11;71044.38;;;-146.40;100.00
13033;BME280;6583;42.632;23.298;2023-05-10T01:51:44;71052.47;;;-146.40;100.00
13033;BME280;6583;42.632;23.298;2023-05-10T01:54:13;71052.47;;;-146.40;100.00
13033;BME280;6583;42.632;23.298;2023-05-10T01:56:42;71052.47;;;-146.40;100.00
13033;BME280;6583;42.632;23.298;2023-05-10T01:59:12;71058.53;;;-146.40;100.00
13033;BME280;6583;42.632;23.298;2023-05-10T02:01:42;71064.63;;;-146.40;100.00
13033;BME280;6583;42.632;23.298;2023-05-10T02:04:14;71072.72;;;-146.40;100.00
13033;BME280;6583;42.632;23.298;2023-05-10T02:06:42;71074.72;;;-146.40;100.00
13033;BME280;6583;42.632;23.298;2023-05-10T02:09:10;71062.59;;;-146.40;100.00
13033;BME280;6583;42.632;23.298;2023-05-10T02:11:39;71066.63;;;-146.40;100.00
13033;BME280;6583;42.632;23.298;2023-05-10T02:14:09;71060.56;;;-146.40;100.00
13033;BME280;6583;42.632;23.298;2023-05-10T02:16:38;71038.31;;;-146.40;100.00
13033;BME280;6583;42.632;23.298;2023-05-10T02:19:06;71044.38;;;-146.40;100.00
13033;BME280;6583;42.632;23.298;2023-05-10T02:21:37;71042.34;;;-146.40;100.00
13033;BME280;6583;42.632;23.298;2023-05-10T02:24:04;71036.28;;;-146.40;100.00
13033;BME280;6583;42.632;23.298;2023-05-10T02:26:33;71032.25;;;-146.40;100.00
13033;BME280;6583;42.632;23.298;2023-05-10T02:29:02;71040.34;;;-146.40;100.00
13033;BME280;6583;42.632;23.298;2023-05-10T02:31:30;71032.25;;;-146.40;100.00
13033;BME280;6583;42.632;23.298;2023-05-10T02:33:58;71044.38;;;-146.40;100.00
13033;BME280;6583;42.632;23.298;2023-05-10T02:36:27;71036.28;;;-146.40;100.00
13033;BME280;6583;42.632;23.298;2023-05-10T02:38:56;71022.13;;;-146.40;100.00
13033;BME280;6583;42.632;23.298;2023-05-10T02:41:24;71038.31;;;-146.40;100.00
13033;BME280;6583;42.632;23.298;2023-05-10T02:43:55;71032.25;;;-146.40;100.00
13033;BME280;6583;42.632;23.298;2023-05-10T02:46:23;71038.31;;;-146.40;100.00
13033;BME280;6583;42.632;23.298;2023-05-10T02:48:50;71040.34;;;-146.40;100.00
13033;BME280;6583;42.632;23.298;2023-05-10T02:51:18;71020.09;;;-146.40;100.00
13033;BME280;6583;42.632;23.298;2023-05-10T02:53:49;71012.00;;;-146.40;100.00
13033;BME280;6583;42.632;23.298;2023-05-10T02:56:24;70993.78;;;-146.40;100.00
13033;BME280;6583;42.632;23.298;2023-05-10T02:58:51;70991.78;;;-146.40;100.00
13033;BME280;6583;42.632;23.298;2023-05-10T03:01:18;70985.69;;;-146.40;100.00
13033;BME280;6583;42.632;23.298;2023-05-10T03:03:45;70981.66;;;-146.40;100.00
13033;BME280;6583;42.632;23.298;2023-05-10T03:06:11;70979.63;;;-146.40;100.00
13033;BME280;6583;42.632;23.298;2023-05-10T03:08:38;70987.72;;;-146.40;100.00
13033;BME280;6583;42.632;23.298;2023-05-10T03:11:16;70989.75;;;-146.40;100.00
13033;BME280;6583;42.632;23.298;2023-05-10T03:13:59;71022.13;;;-146.40;100.00
13033;BME280;6583;42.632;23.298;2023-05-10T03:16:36;71026.16;;;-146.40;100.00
13033;BME280;6583;42.632;23.298;2023-05-10T03:19:12;71016.06;;;-146.40;100.00
13033;BME280;6583;42.632;23.298;2023-05-10T03:21:47;71016.06;;;-146.40;100.00
13033;BME280;6583;42.632;23.298;2023-05-10T03:24:16;71014.03;;;-146.40;100.00
13033;BME280;6583;42.632;23.298;2023-05-10T03:26:45;71005.94;;;-146.40;100.00
13033;BME280;6583;42.632;23.298;2023-05-10T03:29:14;70997.84;;;-146.40;100.00
13033;BME280;6583;42.632;23.298;2023-05-10T03:31:41;71009.97;;;-146.40;100.00
13033;BME280;6583;42.632;23.298;2023-05-10T03:34:08;71007.97;;;-146.40;99.82
13033;BME280;6583;42.632;23.298;2023-05-10T03:36:35;71014.03;;;-146.40;99.12
13033;BME280;6583;42.632;23.298;2023-05-10T03:39:02;71022.13;;;-146.40;98.52
13033;BME280;6583;42.632;23.298;2023-05-10T03:41:29;71028.19;;;-146.40;98.47
13033;BME280;6583;42.632;23.298;2023-05-10T03:43:55;71050.44;;;-146.40;98.46
13033;BME280;6583;42.632;23.298;2023-05-10T03:46:23;71048.44;;;-146.40;100.00
13033;BME280;6583;42.632;23.298;2023-05-10T03:48:50;71064.63;;;-146.40;100.00
13033;BME280;6583;42.632;23.298;2023-05-10T03:51:17;71074.72;;;-146.40;100.00
13033;BME280;6583;42.632;23.298;2023-05-10T03:53:43;71082.81;;;-146.40;100.00
13033;BME280;6583;42.632;23.298;2023-05-10T03:56:10;71088.91;;;-146.40;100.00
13033;BME280;6583;42.632;23.298;2023-05-10T03:58:37;71090.91;;;-146.40;100.00
13033;BME280;6583;42.632;23.298;2023-05-10T04:01:03;71094.97;;;-146.40;100.00
13033;BME280;6583;42.632;23.298;2023-05-10T04:03:31;71111.16;;;-146.40;100.00
13033;BME280;6583;42.632;23.298;2023-05-10T04:05:59;71121.28;;;-146.40;99.76
13033;BME280;6583;42.632;23.298;2023-05-10T04:08:26;71125.31;;;-146.40;100.00
13033;BME280;6583;42.632;23.298;2023-05-10T04:10:53;71133.41;;;-146.40;100.00
13033;BME280;6583;42.632;23.298;2023-05-10T04:13:19;71123.28;;;-146.40;100.00
13033;BME280;6583;42.632;23.298;2023-05-10T04:15:46;71125.31;;;-146.40;100.00
13033;BME280;6583;42.632;23.298;2023-05-10T04:18:13;71129.38;;;-146.40;100.00
13033;BME280;6583;42.632;23.298;2023-05-10T04:20:41;71135.44;;;-146.40;100.00
13033;BME280;6583;42.632;23.298;2023-05-10T04:23:07;71147.59;;;-146.40;100.00
13033;BME280;6583;42.632;23.298;2023-05-10T04:25:34;71135.44;;;-146.40;100.00
13033;BME280;6583;42.632;23.298;2023-05-10T04:28:01;71141.50;;;-146.40;100.00
13033;BME280;6583;42.632;23.298;2023-05-10T04:30:28;71137.47;;;-146.40;100.00
13033;BME280;6583;42.632;23.298;2023-05-10T04:32:54;71141.50;;;-146.40;100.00
13033;BME280;6583;42.632;23.298;2023-05-10T04:35:21;71137.47;;;-146.40;100.00
13033;BME280;6583;42.632;23.298;2023-05-10T04:37:49;71139.50;;;-146.40;100.00
13033;BME280;6583;42.632;23.298;2023-05-10T04:40:16;71145.56;;;-146.40;100.00
13033;BME280;6583;42.632;23.298;2023-05-10T04:42:43;71153.66;;;-146.40;100.00
13033;BME280;6583;42.632;23.298;2023-05-10T04:45:10;71155.69;;;-146.40;100.00
13033;BME280;6583;42.632;23.298;2023-05-10T04:47:37;71147.59;;;-146.40;100.00
13033;BME280;6583;42.632;23.298;2023-05-10T04:50:04;71155.69;;;-146.40;100.00
13033;BME280;6583;42.632;23.298;2023-05-10T04:52:31;71143.53;;;-146.40;100.00
13033;BME280;6583;42.632;23.298;2023-05-10T04:54:59;71135.44;;;-146.40;100.00
13033;BME280;6583;42.632;23.298;2023-05-10T04:57:26;71163.78;;;-146.40;100.00
13033;BME280;6583;42.632;23.298;2023-05-10T04:59:52;71157.69;;;-146.40;100.00
13033;BME280;6583;42.632;23.298;2023-05-10T05:02:19;71165.78;;;-146.40;100.00
13033;BME280;6583;42.632;23.298;2023-05-10T05:04:46;71155.69;;;-146.40;100.00
13033;BME280;6583;42.632;23.298;2023-05-10T05:07:12;71139.50;;;-146.40;100.00
13033;BME280;6583;42.632;23.298;2023-05-10T05:09:39;71141.50;;;-146.40;100.00
13033;BME280;6583;42.632;23.298;2023-05-10T05:12:07;71151.63;;;-146.40;100.00
13033;BME280;6583;42.632;23.298;2023-05-10T05:14:39;71169.84;;;-146.40;100.00
13033;BME280;6583;42.632;23.298;2023-05-10T05:17:06;71167.81;;;-146.40;100.00
13033;BME280;6583;42.632;23.298;2023-05-10T05:19:33;71163.78;;;-146.40;100.00
13033;BME280;6583;42.632;23.298;2023-05-10T05:21:59;71163.78;;;-146.40;100.00
13033;BME280;6583;42.632;23.298;2023-05-10T05:24:26;71161.75;;;-146.40;100.00
13033;BME280;6583;42.632;23.298;2023-05-10T05:26:53;71143.53;;;-146.40;100.00
13033;BME280;6583;42.632;23.298;2023-05-10T05:29:20;71145.56;;;-146.40;100.00
13033;BME280;6583;42.632;23.298;2023-05-10T05:31:47;71145.56;;;-146.40;100.00
13033;BME280;6583;42.632;23.298;2023-05-10T05:34:14;71151.63;;;-146.40;100.00
13033;BME280;6583;42.632;23.298;2023-05-10T05:36:40;71165.78;;;-146.40;100.00
13033;BME280;6583;42.632;23.298;2023-05-10T05:39:07;71177.94;;;-146.40;100.00
13033;BME280;6583;42.632;23.298;2023-05-10T05:41:34;71184.00;;;-146.40;100.00
13033;BME280;6583;42.632;23.298;2023-05-10T05:44:00;71169.84;;;-146.40;100.00
13033;BME280;6583;42.632;23.298;2023-05-10T05:46:28;71173.88;;;-146.40;100.00
13033;BME280;6583;42.632;23.298;2023-05-10T05:48:55;71167.81;;;-146.40;100.00
13033;BME280;6583;42.632;23.298;2023-05-10T05:51:22;71171.88;;;-146.40;100.00
13033;BME280;6583;42.632;23.298;2023-05-10T05:53:48;71177.94;;;-146.40;100.00
13033;BME280;6583;42.632;23.298;2023-05-10T05:56:15;71177.94;;;-146.40;100.00
13033;BME280;6583;42.632;23.298;2023-05-10T05:58:42;71181.97;;;-146.40;100.00
13033;BME280;6583;42.632;23.298;2023-05-10T06:01:10;71186.03;;;-146.40;100.00
13033;BME280;6583;42.632;23.298;2023-05-10T06:03:37;71165.78;;;-146.40;100.00
13033;BME280;6583;42.632;23.298;2023-05-10T06:06:04;71161.75;;;-146.40;100.00
13033;BME280;6583;42.632;23.298;2023-05-10T06:08:31;71161.75;;;-146.40;100.00
13033;BME280;6583;42.632;23.298;2023-05-10T06:10:59;71149.59;;;-146.40;100.00
13033;BME280;6583;42.632;23.298;2023-05-10T06:13:25;71139.50;;;-146.40;100.00
13033;BME280;6583;42.632;23.298;2023-05-10T06:15:57;71133.41;;;-146.40;100.00
13033;BME280;6583;42.632;23.298;2023-05-10T06:18:23;71123.28;;;-146.40;100.00
13033;BME280;6583;42.632;23.298;2023-05-10T06:20:52;71133.41;;;-146.40;99.36
13033;BME280;6583;42.632;23.298;2023-05-10T06:23:19;71125.31;;;-146.40;100.00
13033;BME280;6583;42.632;23.298;2023-05-10T06:25:46;71133.41;;;-146.40;99.49
13033;BME280;6583;42.632;23.298;2023-05-10T06:28:12;71121.28;;;-146.40;100.00
13033;BME280;6583;42.632;23.298;2023-05-10T06:30:39;71129.38;;;-146.40;98.85
13033;BME280;6583;42.632;23.298;2023-05-10T06:33:05;71129.38;;;-146.40;99.23
13033;BME280;6583;42.632;23.298;2023-05-10T06:35:32;71133.41;;;-146.40;99.22
13033;BME280;6583;42.632;23.298;2023-05-10T06:38:00;71125.31;;;-146.40;97.84
13033;BME280;6583;42.632;23.298;2023-05-10T06:40:27;71133.41;;;-146.40;97.04
13033;BME280;6583;42.632;23.298;2023-05-10T06:42:54;71139.50;;;-146.40;97.63
13033;BME280;6583;42.632;23.298;2023-05-10T06:45:20;71125.31;;;-146.40;97.73
13033;BME280;6583;42.632;23.298;2023-05-10T06:47:47;71111.16;;;-146.40;97.50
13033;BME280;6583;42.632;23.298;2023-05-10T06:50:13;71119.25;;;-146.40;95.36
13033;BME280;6583;42.632;23.298;2023-05-10T06:52:40;71119.25;;;-146.40;95.20
13033;BME280;6583;42.632;23.298;2023-05-10T06:55:10;71115.19;;;-146.40;95.07
13033;BME280;6583;42.632;23.298;2023-05-10T06:57:37;71109.13;;;-146.40;94.96
13033;BME280;6583;42.632;23.298;2023-05-10T07:00:04;71105.09;;;-146.40;94.96
13033;BME280;6583;42.632;23.298;2023-05-10T07:02:31;71115.19;;;-146.40;93.93
13033;BME280;6583;42.632;23.298;2023-05-10T07:04:58;71117.22;;;-146.40;93.49
13033;BME280;6583;42.632;23.298;2023-05-10T07:07:25;71121.28;;;-146.40;93.30
13033;BME280;6583;42.632;23.298;2023-05-10T07:09:51;71139.50;;;-146.40;94.32
13033;BME280;6583;42.632;23.298;2023-05-10T07:12:19;71141.50;;;-146.40;94.98
13033;BME280;6583;42.632;23.298;2023-05-10T07:14:46;71141.50;;;-146.40;94.39
13033;BME280;6583;42.632;23.298;2023-05-10T07:17:13;71149.59;;;-146.40;93.75
13033;BME280;6583;42.632;23.298;2023-05-10T07:19:39;71135.44;;;-146.40;94.17
13033;BME280;6583;42.632;23.298;2023-05-10T07:22:06;71141.50;;;-146.40;93.44
13033;BME280;6583;42.632;23.298;2023-05-10T07:24:33;71133.41;;;-146.40;93.56
13033;BME280;6583;42.632;23.298;2023-05-10T07:27:00;71129.38;;;-146.40;93.85
13033;BME280;6583;42.632;23.298;2023-05-10T07:29:28;71137.47;;;-146.40;92.94
13033;BME280;6583;42.632;23.298;2023-05-10T07:31:54;71133.41;;;-146.40;94.84
13033;BME280;6583;42.632;23.298;2023-05-10T07:34:21;71129.38;;;-146.40;94.65
13033;BME280;6583;42.632;23.298;2023-05-10T07:36:48;71125.31;;;-146.40;95.49
13033;BME280;6583;42.632;23.298;2023-05-10T07:39:15;71135.44;;;-146.40;93.69
13033;BME280;6583;42.632;23.298;2023-05-10T07:41:42;71131.41;;;-146.40;93.84
13033;BME280;6583;42.632;23.298;2023-05-10T07:44:08;71119.25;;;-146.40;94.94
13033;BME280;6583;42.632;23.298;2023-05-10T07:46:36;71125.31;;;-146.40;92.98
13033;BME280;6583;42.632;23.298;2023-05-10T07:49:03;71131.41;;;-146.40;93.37
13033;BME280;6583;42.632;23.298;2023-05-10T07:51:30;71117.22;;;-146.40;94.45
13033;BME280;6583;42.632;23.298;2023-05-10T07:53:57;71117.22;;;-146.40;93.97
13033;BME280;6583;42.632;23.298;2023-05-10T07:56:26;71101.03;;;-146.40;95.27
13033;BME280;6583;42.632;23.298;2023-05-10T07:58:55;71109.13;;;-146.40;94.78
13033;BME280;6583;42.632;23.298;2023-05-10T08:01:22;71119.25;;;-146.40;93.97
13033;BME280;6583;42.632;23.298;2023-05-10T08:03:50;71119.25;;;-146.40;94.74
13033;BME280;6583;42.632;23.298;2023-05-10T08:06:19;71109.13;;;-146.40;95.90
13033;BME280;6583;42.632;23.298;2023-05-10T08:08:46;71133.41;;;-146.40;95.81
13033;BME280;6583;42.632;23.298;2023-05-10T08:11:14;71121.28;;;-146.40;96.11
13033;BME280;6583;42.632;23.298;2023-05-10T08:13:41;71109.13;;;-146.40;95.74
13033;BME280;6583;42.632;23.298;2023-05-10T08:16:08;71094.97;;;-146.40;95.40
13033;BME280;6583;42.632;23.298;2023-05-10T08:18:34;71105.09;;;-146.40;94.27
13033;BME280;6583;42.632;23.298;2023-05-10T08:21:03;71113.19;;;-146.40;94.45
13033;BME280;6583;42.632;23.298;2023-05-10T08:23:29;71094.97;;;-146.40;95.35
13033;BME280;6583;42.632;23.298;2023-05-10T08:25:56;71097.00;;;-146.40;96.08
13033;BME280;6583;42.632;23.298;2023-05-10T08:28:23;71090.91;;;-146.40;95.39
13033;BME280;6583;42.632;23.298;2023-05-10T08:30:50;71088.91;;;-146.40;94.96
13033;BME280;6583;42.632;23.298;2023-05-10T08:33:17;71097.00;;;-146.40;94.57
13033;BME280;6583;42.632;23.298;2023-05-10T08:35:44;71088.91;;;-146.40;95.60
13033;BME280;6583;42.632;23.298;2023-05-10T08:38:12;71078.78;;;-146.40;94.94
13033;BME280;6583;42.632;23.298;2023-05-10T08:40:41;71076.75;;;-146.40;94.78
13033;BME280;6583;42.632;23.298;2023-05-10T08:43:10;71072.72;;;-146.40;93.52
13033;BME280;6583;42.632;23.298;2023-05-10T08:45:38;71076.75;;;-146.40;94.64
13033;BME280;6583;42.632;23.298;2023-05-10T08:48:06;71068.66;;;-146.40;94.65
13033;BME280;6583;42.632;23.298;2023-05-10T08:50:35;71068.66;;;-146.40;95.00
13033;BME280;6583;42.632;23.298;2023-05-10T08:53:04;71072.72;;;-146.40;95.14
13033;BME280;6583;42.632;23.298;2023-05-10T08:55:33;71088.91;;;-146.40;95.27
13033;BME280;6583;42.632;23.298;2023-05-10T08:58:02;71078.78;;;-146.40;96.48
13033;BME280;6583;42.632;23.298;2023-05-10T09:00:28;71086.88;;;-146.40;96.56
13033;BME280;6583;42.632;23.298;2023-05-10T09:02:56;71076.75;;;-146.40;97.82
13033;BME280;6583;42.632;23.298;2023-05-10T09:05:24;71076.75;;;-146.40;96.46
13033;BME280;6583;42.632;23.298;2023-05-10T09:07:50;71066.63;;;-146.40;97.46
13033;BME280;6583;42.632;23.298;2023-05-10T09:10:18;71050.44;;;-146.40;98.06
13033;BME280;6583;42.632;23.298;2023-05-10T09:12:47;71040.34;;;-146.40;99.33
13033;BME280;6583;42.632;23.298;2023-05-10T09:15:15;71038.31;;;-146.40;97.80
13033;BME280;6583;42.632;23.298;2023-05-10T09:17:44;71060.56;;;-146.40;96.78
13033;BME280;6583;42.632;23.298;2023-05-10T09:20:12;71036.28;;;-146.40;98.45
13033;BME280;6583;42.632;23.298;2023-05-10T09:22:38;71044.38;;;-146.40;97.95
13033;BME280;6583;42.632;23.298;2023-05-10T09:25:06;71056.53;;;-146.40;97.94
13033;BME280;6583;42.632;23.298;2023-05-10T09:27:33;71060.56;;;-146.40;98.10
13033;BME280;6583;42.632;23.298;2023-05-10T09:30:02;71030.22;;;-146.40;98.30
13033;BME280;6583;42.632;23.298;2023-05-10T09:32:39;71022.13;;;-146.40;96.76
13033;BME280;6583;42.632;23.298;2023-05-10T09:35:10;71044.38;;;-146.40;95.33
13033;BME280;6583;42.632;23.298;2023-05-10T09:37:39;71052.47;;;-146.40;95.94
13033;BME280;6583;42.632;23.298;2023-05-10T09:40:07;71040.34;;;-146.40;96.46
13033;BME280;6583;42.632;23.298;2023-05-10T09:42:34;71028.19;;;-146.40;96.81
13033;BME280;6583;42.632;23.298;2023-05-10T09:45:07;71032.25;;;-146.40;95.27
13033;BME280;6583;42.632;23.298;2023-05-10T09:47:34;71072.72;;;-146.40;94.13
13033;BME280;6583;42.632;23.298;2023-05-10T09:50:02;71048.44;;;-146.40;94.46
13033;BME280;6583;42.632;23.298;2023-05-10T09:52:30;71042.34;;;-146.40;94.49
13033;BME280;6583;42.632;23.298;2023-05-10T09:54:57;71016.06;;;-146.40;94.30
13033;BME280;6583;42.632;23.298;2023-05-10T09:57:24;71048.44;;;-146.40;92.76
13033;BME280;6583;42.632;23.298;2023-05-10T09:59:51;71016.06;;;-146.40;93.83
13033;BME280;6583;42.632;23.298;2023-05-10T10:02:21;70997.84;;;-146.40;92.07
13033;BME280;6583;42.632;23.298;2023-05-10T10:04:55;70995.81;;;-146.40;91.00
13033;BME280;6583;42.632;23.298;2023-05-10T10:07:23;71009.97;;;-146.40;90.40
13033;BME280;6583;42.632;23.298;2023-05-10T10:09:51;70995.81;;;-146.40;90.33
13033;BME280;6583;42.632;23.298;2023-05-10T10:12:18;70983.69;;;-146.40;90.95
13033;BME280;6583;42.632;23.298;2023-05-10T10:14:46;70959.41;;;-146.40;90.23
13033;BME280;6583;42.632;23.298;2023-05-10T10:17:14;70985.69;;;-146.40;90.46
13033;BME280;6583;42.632;23.298;2023-05-10T10:19:43;70979.63;;;-146.40;90.63
13033;BME280;6583;42.632;23.298;2023-05-10T10:22:10;70975.59;;;-146.40;89.95
13033;BME280;6583;42.632;23.298;2023-05-10T10:24:38;70971.53;;;-146.40;90.57
13033;BME280;6583;42.632;23.298;2023-05-10T10:27:12;70983.69;;;-146.40;89.53
13033;BME280;6583;42.632;23.298;2023-05-10T10:29:50;70987.72;;;-146.40;89.46
13033;BME280;6583;42.632;23.298;2023-05-10T10:32:24;70963.44;;;-146.40;90.36
13033;BME280;6583;42.632;23.298;2023-05-10T10:34:53;70965.47;;;-146.40;88.67
13033;BME280;6583;42.632;23.298;2023-05-10T10:37:21;70955.34;;;-146.40;89.63
13033;BME280;6583;42.632;23.298;2023-05-10T10:39:48;70947.25;;;-146.40;89.61
13033;BME280;6583;42.632;23.298;2023-05-10T10:42:46;70957.38;;;-146.40;88.07
13033;BME280;6583;42.632;23.298;2023-05-10T10:45:15;70963.44;;;-146.40;88.36
13033;BME280;6583;42.632;23.298;2023-05-10T10:47:42;70975.59;;;-146.40;88.58
13033;BME280;6583;42.632;23.298;2023-05-10T10:50:11;70979.63;;;-146.40;87.88
13033;BME280;6583;42.632;23.298;2023-05-10T10:52:39;70967.50;;;-146.40;87.43
13033;BME280;6583;42.632;23.298;2023-05-10T10:55:07;70975.59;;;-146.40;88.62
13033;BME280;6583;42.632;23.298;2023-05-10T10:57:49;70975.59;;;-146.40;88.86
13033;BME280;6583;42.632;23.298;2023-05-10T11:00:25;70975.59;;;-146.40;88.15
13033;BME280;6583;42.632;23.298;2023-05-10T11:02:53;70967.50;;;-146.40;88.04
13033;BME280;6583;42.632;23.298;2023-05-10T11:05:46;70965.47;;;-146.40;88.82
13033;BME280;6583;42.632;23.298;2023-05-10T11:08:15;70955.34;;;-146.40;89.46
13033;BME280;6583;42.632;23.298;2023-05-10T11:11:06;70941.19;;;-146.40;89.14
13033;BME280;6583;42.632;23.298;2023-05-10T11:13:36;70957.38;;;-146.40;86.95
13033;BME280;6583;42.632;23.298;2023-05-10T11:16:11;70959.41;;;-146.40;88.23
13033;BME280;6583;42.632;23.298;2023-05-10T11:18:39;70947.25;;;-146.40;87.73
13033;BME280;6583;42.632;23.298;2023-05-10T11:21:09;70947.25;;;-146.40;88.08
13033;BME280;6583;42.632;23.298;2023-05-10T11:23:48;70945.22;;;-146.40;87.62
13033;BME280;6583;42.632;23.298;2023-05-10T11:26:15;70933.09;;;-146.40;87.35
13033;BME280;6583;42.632;23.298;2023-05-10T11:28:44;70922.97;;;-146.40;87.40
13033;BME280;6583;42.632;23.298;2023-05-10T11:31:13;70925.00;;;-146.40;86.96
13033;BME280;6583;42.632;23.298;2023-05-10T11:33:43;70929.03;;;-146.40;86.48
13033;BME280;6583;42.632;23.298;2023-05-10T11:36:13;70935.13;;;-146.40;87.02
13033;BME280;6583;42.632;23.298;2023-05-10T11:38:40;70959.41;;;-146.40;87.29
13033;BME280;6583;42.632;23.298;2023-05-10T11:41:08;70951.31;;;-146.40;87.98
13033;BME280;6583;42.632;23.298;2023-05-10T11:43:35;70969.50;;;-146.40;88.07
13033;BME280;6583;42.632;23.298;2023-05-10T11:46:04;70967.50;;;-146.40;89.26
13033;BME280;6583;42.632;23.298;2023-05-10T11:48:31;70945.22;;;-146.40;89.68
13033;BME280;6583;42.632;23.298;2023-05-10T11:50:57;70955.34;;;-146.40;87.92
13033;BME280;6583;42.632;23.298;2023-05-10T11:53:27;70949.28;;;-146.40;88.60
13033;BME280;6583;42.632;23.298;2023-05-10T11:55:53;70941.19;;;-146.40;88.39
13033;BME280;6583;42.632;23.298;2023-05-10T11:58:20;70927.03;;;-146.40;87.36
13033;BME280;6583;42.632;23.298;2023-05-10T12:00:48;70910.84;;;-146.40;87.53
13033;BME280;6583;42.632;23.298;2023-05-10T12:03:16;70927.03;;;-146.40;87.53
13033;BME280;6583;42.632;23.298;2023-05-10T12:05:43;70916.91;;;-146.40;87.76
13033;BME280;6583;42.632;23.298;2023-05-10T12:08:14;70939.16;;;-146.40;88.06
13033;BME280;6583;42.632;23.298;2023-05-10T12:10:42;70935.13;;;-146.40;89.40
13033;BME280;6583;42.632;23.298;2023-05-10T12:13:12;70927.03;;;-146.40;88.77
13033;BME280;6583;42.632;23.298;2023-05-10T12:15:40;70929.03;;;-146.40;89.39
13033;BME280;6583;42.632;23.298;2023-05-10T12:18:08;70922.97;;;-146.40;89.05
13033;BME280;6583;42.632;23.298;2023-05-10T12:20:35;70910.84;;;-146.40;89.29
13033;BME280;6583;42.632;23.298;2023-05-10T12:23:02;70910.84;;;-146.40;88.88
13033;BME280;6583;42.632;23.298;2023-05-10T12:25:32;70918.94;;;-146.40;89.15
13033;BME280;6583;42.632;23.298;2023-05-10T12:28:04;70910.84;;;-146.40;89.26
13033;BME280;6583;42.632;23.298;2023-05-10T12:30:32;70916.91;;;-146.40;89.83
13033;BME280;6583;42.632;23.298;2023-05-10T12:33:00;70918.94;;;-146.40;89.67
13033;BME280;6583;42.632;23.298;2023-05-10T12:35:30;70916.91;;;-146.40;88.93
13033;BME280;6583;42.632;23.298;2023-05-10T12:37:57;70922.97;;;-146.40;89.71
13033;BME280;6583;42.632;23.298;2023-05-10T12:40:24;70918.94;;;-146.40;89.86
13033;BME280;6583;42.632;23.298;2023-05-10T12:42:51;70908.81;;;-146.40;89.30